Time;durP1;ratioP1;P1;durP2;ratioP2;P2;SDS_P1;SDS_P2;PMS_P1;PMS_P2;Temp;Humidity;BMP_temperature;BMP_pressure;BME280_temperature;BME280_humidity;BME280_pressure;Samples;Min_cycle;Max_cycle;Signal;HPM_P1;HPM_P2
2022/01/27 00:01:51;;;;;;;59.22;28.10;;;;;;;1.53;78.26;100907.84;4984820;28;20153;-72
2022/01/27 00:04:22;;;;;;;59.92;27.80;;;;;;;1.57;78.45;100912.19;4983608;28;20038;-73
2022/01/27 00:06:48;;;;;;;68.32;30.60;;;;;;;1.54;78.68;100913.91;4967791;28;20054;-72
2022/01/27 00:09:23;;;;;;;53.03;28.88;;;;;;;1.50;79.01;100915.59;4985851;28;20031;-73
2022/01/27 00:11:49;;;;;;;73.32;32.55;;;;;;;1.48;78.68;100913.00;4987102;28;20049;-73
2022/01/27 00:14:17;;;;;;;67.65;31.67;;;;;;;1.42;79.61;100905.16;4987997;28;20038;-72
2022/01/27 00:16:52;;;;;;;64.10;29.30;;;;;;;1.38;79.55;100898.22;4987930;28;20100;-73
2022/01/27 00:19:18;;;;;;;66.35;29.95;;;;;;;1.40;79.36;100898.22;4987574;28;20050;-71
2022/01/27 00:21:43;;;;;;;68.45;30.63;;;;;;;1.35;79.83;100899.91;4974650;28;20398;-71
2022/01/27 00:24:08;;;;;;;66.07;30.52;;;;;;;1.39;79.85;100902.56;4974043;28;20463;-73
2022/01/27 00:26:34;;;;;;;68.03;30.73;;;;;;;1.42;79.66;100910.34;4989110;28;20033;-75
2022/01/27 00:28:59;;;;;;;57.70;28.50;;;;;;;1.41;79.64;100890.44;4986930;28;20026;-73
2022/01/27 00:31:25;;;;;;;63.20;28.33;;;;;;;1.40;80.09;100898.22;4984969;28;20101;-73
2022/01/27 00:33:51;;;;;;;73.53;29.35;;;;;;;1.43;79.71;100887.88;4984835;28;20042;-72
2022/01/27 00:36:17;;;;;;;51.25;23.65;;;;;;;1.71;84.19;100878.47;4970710;28;20042;-68
2022/01/27 00:38:43;;;;;;;60.47;29.90;;;;;;;2.39;78.44;100858.75;4995318;28;20727;-65
2022/01/27 00:41:08;;;;;;;58.95;28.70;;;;;;;2.68;75.93;100861.34;5001267;28;20042;-63
2022/01/27 00:43:34;;;;;;;58.03;27.38;;;;;;;3.05;74.37;100858.72;4997923;28;20030;-65
2022/01/27 00:45:59;;;;;;;56.40;26.60;;;;;;;3.19;73.50;100849.16;4984874;28;20084;-65
2022/01/27 00:48:24;;;;;;;50.88;24.75;;;;;;;3.16;73.35;100850.91;5007162;28;20041;-68
2022/01/27 00:51:00;;;;;;;55.92;26.42;;;;;;;3.18;73.32;100847.44;5000396;28;20081;-67
2022/01/27 00:53:42;;;;;;;47.83;22.98;;;;;;;2.98;72.88;100851.81;4984802;28;20054;-74
2022/01/27 00:58:55;;;;;;;59.83;26.95;;;;;;;2.21;75.75;100845.69;4990633;28;20038;-73
2022/01/27 01:01:33;;;;;;;49.10;25.98;;;;;;;2.09;76.40;100843.91;4978817;28;20074;-72
2022/01/27 01:04:02;;;;;;;57.15;28.05;;;;;;;1.89;77.20;100839.53;4965512;28;20043;-71
2022/01/27 01:12:14;;;;;;;44.42;22.98;;;;;;;1.79;78.42;100823.91;4951753;28;20054;-71
2022/01/27 01:17:08;;;;;;;48.45;26.02;;;;;;;1.69;78.84;100825.59;4953728;28;20035;-72
2022/01/27 01:29:26;;;;;;;57.88;26.80;;;;;;;1.71;78.89;100801.34;4970703;28;20467;-73
2022/01/27 01:33:09;;;;;;;51.88;25.85;;;;;;;1.58;79.63;100799.59;4969429;28;20035;-73
2022/01/27 01:36:00;;;;;;;55.15;26.27;;;;;;;1.55;80.06;100788.28;4968497;28;20661;-72
2022/01/27 01:38:26;;;;;;;50.67;25.00;;;;;;;1.48;79.99;100793.47;4969495;28;20501;-73
2022/01/27 01:40:53;;;;;;;56.83;26.05;;;;;;;1.49;80.47;100795.19;4952294;28;20448;-73
2022/01/27 01:43:20;;;;;;;54.30;25.60;;;;;;;1.51;79.98;100782.22;4969509;28;20061;-73
2022/01/27 01:45:46;;;;;;;54.50;26.90;;;;;;;1.50;80.36;100783.06;4968253;28;20038;-73
2022/01/27 01:48:12;;;;;;;55.90;27.20;;;;;;;1.51;80.28;100774.44;4969559;28;20035;-73
2022/01/27 01:50:38;;;;;;;55.10;27.05;;;;;;;1.51;79.90;100771.84;4969089;28;20038;-73
2022/01/27 01:53:04;;;;;;;49.83;23.90;;;;;;;1.51;79.83;100766.63;4969603;28;20058;-73
2022/01/27 01:55:31;;;;;;;47.80;24.17;;;;;;;1.45;80.03;100751.91;4957964;28;20042;-73
2022/01/27 01:57:57;;;;;;;52.55;25.73;;;;;;;1.46;80.35;100756.22;4949346;28;20043;-73
2022/01/27 02:00:23;;;;;;;49.95;25.90;;;;;;;1.43;80.08;100745.84;4949771;28;20031;-73
2022/01/27 02:02:49;;;;;;;53.13;24.45;;;;;;;1.42;80.29;100751.88;4924894;28;20122;-73
2022/01/27 02:05:14;;;;;;;53.75;26.65;;;;;;;1.42;80.44;100772.66;4952406;28;20122;-72
2022/01/27 02:19:14;;;;;;;52.50;26.23;;;;;;;1.48;80.16;100777.91;4954151;28;20126;-73
2022/01/27 02:21:48;;;;;;;54.00;26.77;;;;;;;1.52;79.90;100776.16;4955819;28;20031;-73
2022/01/27 02:24:14;;;;;;;61.55;26.40;;;;;;;1.53;79.61;100775.31;4954528;28;20039;-73
2022/01/27 02:26:41;;;;;;;59.10;28.10;;;;;;;1.56;79.94;100759.72;4954872;28;20039;-73
2022/01/27 02:29:07;;;;;;;52.65;27.00;;;;;;;1.54;79.86;100757.97;4954259;28;20042;-73
2022/01/27 02:31:32;;;;;;;60.60;28.95;;;;;;;1.53;80.20;100743.25;4953376;28;20035;-73
2022/01/27 02:34:00;;;;;;;51.35;26.33;;;;;;;1.49;80.48;100738.03;4953280;28;20516;-73
2022/01/27 02:36:25;;;;;;;58.42;28.30;;;;;;;1.55;80.01;100742.41;4953178;28;20043;-74
2022/01/27 02:38:51;;;;;;;53.22;25.00;;;;;;;1.59;80.25;100725.09;4952961;28;20095;-73
2022/01/27 02:41:16;;;;;;;56.22;27.85;;;;;;;1.59;79.61;100723.34;4952797;28;20047;-72
2022/01/27 02:43:42;;;;;;;52.15;27.10;;;;;;;1.63;80.28;100717.31;4935569;28;20122;-72
2022/01/27 02:46:20;;;;;;;56.65;30.73;;;;;;;1.65;79.78;100706.88;4952138;28;20485;-72
2022/01/27 02:48:45;;;;;;;61.28;29.13;;;;;;;1.61;80.39;100699.97;4953385;28;20043;-73
2022/01/27 02:51:11;;;;;;;50.45;23.73;;;;;;;1.62;80.03;100702.56;4952926;28;20031;-73
2022/01/27 02:53:36;;;;;;;62.15;28.02;;;;;;;1.63;80.25;100693.91;4952733;28;20385;-73
2022/01/27 02:56:02;;;;;;;55.08;29.05;;;;;;;1.66;80.36;100696.50;4951970;28;20035;-72
2022/01/27 02:58:27;;;;;;;58.47;29.48;;;;;;;1.75;80.23;100698.25;4952945;28;20512;-72
2022/01/27 03:00:52;;;;;;;47.97;28.63;;;;;;;1.81;79.87;100687.00;4935341;29;20032;-72
2022/01/27 03:03:18;;;;;;;60.95;25.95;;;;;;;1.85;79.97;100691.34;4952217;28;20058;-72
2022/01/27 03:05:43;;;;;;;49.65;25.83;;;;;;;1.86;80.06;100687.88;4951657;28;20043;-72
2022/01/27 03:08:08;;;;;;;51.30;28.60;;;;;;;1.88;80.10;100680.94;4952410;28;20039;-72
2022/01/27 03:10:42;;;;;;;56.53;27.05;;;;;;;1.91;79.88;100674.00;4952089;28;20031;-72
2022/01/27 03:13:08;;;;;;;50.70;27.60;;;;;;;1.94;79.85;100667.94;4938811;28;20035;-72
2022/01/27 03:15:34;;;;;;;63.45;28.45;;;;;;;1.94;80.11;100670.53;4972418;28;20519;-72
2022/01/27 03:17:59;;;;;;;49.33;25.88;;;;;;;1.98;79.99;100663.63;4971370;28;20567;-72
2022/01/27 03:20:31;;;;;;;60.95;28.00;;;;;;;2.02;79.75;100670.53;4971415;28;20066;-72
2022/01/27 03:22:57;;;;;;;56.63;30.85;;;;;;;2.07;79.76;100663.63;4970429;28;20038;-72
2022/01/27 03:25:22;;;;;;;54.00;25.52;;;;;;;2.10;79.65;100677.47;4970454;28;20511;-72
2022/01/27 03:27:48;;;;;;;54.13;26.08;;;;;;;2.12;79.37;100667.09;4954181;28;20852;-72
2022/01/27 03:30:15;;;;;;;50.70;26.02;;;;;;;2.11;79.85;100667.94;4953561;28;20089;-72
2022/01/27 03:32:41;;;;;;;49.75;26.10;;;;;;;2.08;79.79;100662.75;4970870;28;20043;-73
2022/01/27 03:35:06;;;;;;;52.17;26.45;;;;;;;2.12;79.84;100667.09;4969946;28;20054;-72
2022/01/27 03:37:32;;;;;;;54.20;27.00;;;;;;;2.14;79.91;100660.13;4970987;28;20034;-72
2022/01/27 03:39:57;;;;;;;57.25;25.75;;;;;;;2.18;79.87;100656.66;4971376;28;20041;-72
2022/01/27 03:42:24;;;;;;;45.55;25.52;;;;;;;2.19;79.58;100639.31;4970886;28;20031;-72
2022/01/27 03:44:49;;;;;;;55.42;28.02;;;;;;;2.20;79.59;100636.72;4969804;28;20035;-73
2022/01/27 03:47:14;;;;;;;50.05;24.92;;;;;;;2.24;79.29;100630.66;4970373;28;20119;-72
2022/01/27 03:49:40;;;;;;;47.33;24.00;;;;;;;2.27;79.44;100620.22;4970938;28;20047;-72
2022/01/27 03:52:05;;;;;;;48.13;26.70;;;;;;;2.32;79.52;100622.81;4970423;28;20089;-72
2022/01/27 03:54:31;;;;;;;51.30;24.83;;;;;;;2.30;79.83;100617.63;4970245;28;20034;-72
2022/01/27 03:56:57;;;;;;;51.38;25.38;;;;;;;2.34;79.46;100645.38;4970773;28;20450;-72
2022/01/27 03:59:23;;;;;;;47.10;26.50;;;;;;;2.39;79.54;100647.06;4970525;28;20035;-72
2022/01/27 04:01:48;;;;;;;51.30;26.25;;;;;;;2.43;79.05;100646.22;4970558;28;20038;-73
2022/01/27 04:04:14;;;;;;;46.08;23.38;;;;;;;2.50;79.16;100650.53;4970802;28;20694;-73
2022/01/27 04:06:41;;;;;;;43.40;23.35;;;;;;;2.52;79.34;100651.41;4951234;28;20081;-72
2022/01/27 04:09:10;;;;;;;41.95;21.10;;;;;;;2.56;78.91;100651.41;4951228;28;20481;-73
2022/01/27 04:11:38;;;;;;;43.97;24.25;;;;;;;2.56;78.90;100635.78;4951238;28;20091;-73
2022/01/27 04:14:04;;;;;;;52.85;25.38;;;;;;;2.61;79.02;100627.97;4933402;28;20496;-73
2022/01/27 04:16:30;;;;;;;49.22;23.48;;;;;;;2.59;78.90;100629.69;4951035;28;20047;-72
2022/01/27 04:18:55;;;;;;;43.67;22.98;;;;;;;2.65;78.83;100623.59;4951279;28;20050;-73
2022/01/27 04:21:21;;;;;;;41.17;22.35;;;;;;;2.64;78.95;100614.94;4950823;28;20039;-72
2022/01/27 04:23:46;;;;;;;49.50;23.85;;;;;;;2.67;78.96;100611.44;4950484;28;20079;-72
2022/01/27 04:26:15;;;;;;;43.30;23.67;;;;;;;2.66;78.86;100602.78;4950142;28;20496;-72
2022/01/27 04:28:42;;;;;;;43.10;21.48;;;;;;;2.73;79.11;100614.91;4950936;28;20038;-72
2022/01/27 04:31:09;;;;;;;42.40;22.85;;;;;;;2.77;78.43;100602.72;4950616;28;20492;-73
2022/01/27 04:33:37;;;;;;;50.67;23.83;;;;;;;2.80;78.83;100600.09;4950742;28;20040;-73
2022/01/27 04:36:09;;;;;;;39.47;23.15;;;;;;;2.84;78.93;100603.56;4950262;28;20043;-73
2022/01/27 04:38:37;;;;;;;43.30;24.25;;;;;;;2.86;78.69;100615.72;4950614;28;20035;-73
2022/01/27 04:48:36;;;;;;;44.03;23.85;;;;;;;3.03;78.71;100614.75;4950784;28;20043;-71
2022/01/27 04:51:09;;;;;;;40.80;22.77;;;;;;;3.03;78.58;100615.63;4950988;28;20175;-73
2022/01/27 04:53:52;;;;;;;41.97;23.42;;;;;;;3.09;78.38;100623.41;4951419;28;20035;-72
2022/01/27 04:56:20;;;;;;;43.25;22.77;;;;;;;3.11;78.38;100610.38;4950227;28;20488;-72
2022/01/27 04:58:50;;;;;;;42.05;22.33;;;;;;;3.11;78.39;100605.19;4950339;28;20042;-74
2022/01/27 05:01:18;;;;;;;38.35;22.25;;;;;;;3.12;78.56;100604.28;4949967;28;20134;-73
2022/01/27 05:03:52;;;;;;;41.38;20.70;;;;;;;3.15;78.51;100605.16;4932851;28;20524;-73
2022/01/27 05:06:17;;;;;;;35.72;21.25;;;;;;;3.19;78.37;100604.25;4967695;28;20137;-72
2022/01/27 05:08:43;;;;;;;41.63;22.27;;;;;;;3.20;78.06;100608.59;4988292;28;20046;-72
2022/01/27 05:11:33;;;;;;;45.42;22.83;;;;;;;3.22;78.29;100592.94;4964661;28;20066;-71
2022/01/27 05:16:20;;;;;;;42.53;22.63;;;;;;;3.21;78.50;100588.59;4988625;28;20042;-72
2022/01/27 05:18:45;;;;;;;42.90;22.02;;;;;;;3.24;78.16;100580.75;4988788;28;20047;-72
2022/01/27 05:21:11;;;;;;;36.72;21.67;;;;;;;3.23;78.30;100586.88;4988810;28;20030;-71
2022/01/27 05:23:36;;;;;;;39.28;23.25;;;;;;;3.24;78.40;100585.97;4988776;28;20507;-73
2022/01/27 05:26:01;;;;;;;39.80;21.70;;;;;;;3.25;78.34;100590.34;4987843;28;20065;-72
2022/01/27 05:28:27;;;;;;;50.10;21.02;;;;;;;3.29;78.30;100581.59;4988599;28;20073;-72
2022/01/27 05:30:52;;;;;;;39.22;22.02;;;;;;;3.30;77.70;100582.44;4985596;28;20049;-71
2022/01/27 05:33:18;;;;;;;37.13;22.77;;;;;;;3.29;78.12;100580.72;4969400;28;20030;-71
2022/01/27 05:35:45;;;;;;;37.20;21.67;;;;;;;3.28;78.22;100574.66;4968524;28;20063;-71
2022/01/27 05:38:13;;;;;;;43.40;24.05;;;;;;;3.28;78.43;100566.00;4969220;28;20041;-72
2022/01/27 05:40:39;;;;;;;45.20;22.95;;;;;;;3.30;78.32;100569.41;4969548;28;20407;-72
2022/01/27 05:43:04;;;;;;;41.97;22.48;;;;;;;3.32;78.09;100563.31;4969271;28;20023;-72
2022/01/27 05:45:30;;;;;;;45.20;22.80;;;;;;;3.34;78.41;100553.75;4955250;28;20091;-72
2022/01/27 05:47:55;;;;;;;39.95;22.20;;;;;;;3.36;78.45;100551.16;4972538;28;20443;-72
2022/01/27 05:50:20;;;;;;;38.85;22.90;;;;;;;3.35;78.21;100539.00;4972589;28;20097;-71
2022/01/27 05:52:46;;;;;;;39.85;22.65;;;;;;;3.36;78.20;100532.91;4973132;28;20035;-72
2022/01/27 05:55:12;;;;;;;38.72;22.70;;;;;;;3.35;78.96;100523.38;4971895;28;20400;-71
2022/01/27 05:57:37;;;;;;;44.85;24.05;;;;;;;3.35;78.20;100518.16;4972192;28;20859;-71
2022/01/27 06:00:04;;;;;;;39.90;21.38;;;;;;;3.38;78.73;100524.19;4971501;28;20119;-72
2022/01/27 06:02:29;;;;;;;35.80;20.73;;;;;;;3.39;78.48;100507.69;4955837;28;20023;-71
2022/01/27 06:04:55;;;;;;;47.45;22.80;;;;;;;3.43;78.45;100508.53;4971765;28;20710;-72
2022/01/27 06:07:20;;;;;;;39.85;22.58;;;;;;;3.43;78.71;100508.53;4972481;28;20103;-72
2022/01/27 06:09:46;;;;;;;47.20;23.10;;;;;;;3.44;78.98;100516.31;4973278;28;20035;-71
2022/01/27 06:12:11;;;;;;;37.28;21.15;;;;;;;3.49;78.54;100526.72;4972870;28;20035;-72
2022/01/27 06:14:36;;;;;;;45.53;23.98;;;;;;;3.50;78.53;100525.84;4972175;28;20094;-73
2022/01/27 06:17:02;;;;;;;38.70;22.73;;;;;;;3.53;78.57;100524.97;4972486;28;20062;-72
2022/01/27 06:19:28;;;;;;;44.97;24.02;;;;;;;3.53;78.65;100515.38;4972864;28;20035;-72
2022/01/27 06:21:53;;;;;;;38.30;21.65;;;;;;;3.51;78.68;100514.53;4972729;28;20039;-72
2022/01/27 06:24:19;;;;;;;44.00;24.23;;;;;;;3.52;78.26;100518.88;4971655;28;20403;-75
2022/01/27 06:26:45;;;;;;;40.80;23.52;;;;;;;3.57;78.39;100506.69;4972447;28;20089;-72
2022/01/27 06:29:10;;;;;;;37.42;20.90;;;;;;;3.60;78.58;100498.81;4972127;28;20035;-73
2022/01/27 06:31:36;;;;;;;42.05;22.70;;;;;;;3.60;78.26;100484.94;4954872;28;20518;-73
2022/01/27 06:34:01;;;;;;;43.58;22.73;;;;;;;3.51;78.43;100474.56;4972273;28;20113;-71
2022/01/27 06:36:26;;;;;;;42.65;21.58;;;;;;;3.51;78.51;100474.56;4971907;28;20034;-70
2022/01/27 06:38:52;;;;;;;45.83;22.52;;;;;;;3.50;78.56;100468.50;4972048;28;20451;-73
2022/01/27 06:41:17;;;;;;;37.20;23.58;;;;;;;3.51;78.90;100479.78;4972016;28;20047;-72
2022/01/27 06:43:42;;;;;;;43.50;22.80;;;;;;;3.50;79.21;100478.94;4972183;28;20045;-73
2022/01/27 06:46:08;;;;;;;48.40;22.70;;;;;;;3.54;79.10;100492.78;4971051;28;20034;-72
2022/01/27 06:48:33;;;;;;;38.85;23.27;;;;;;;3.55;78.93;100487.56;4971688;28;20035;-72
2022/01/27 06:51:01;;;;;;;40.88;22.13;;;;;;;3.56;78.75;100491.03;4972507;28;20041;-72
2022/01/27 06:53:27;;;;;;;40.88;22.92;;;;;;;3.58;78.86;100482.31;4971742;28;20043;-73
2022/01/27 06:55:54;;;;;;;39.30;22.77;;;;;;;3.64;78.95;100482.28;4970805;28;20041;-73
2022/01/27 06:58:19;;;;;;;42.72;25.42;;;;;;;3.69;78.71;100463.94;4954660;28;20039;-73
2022/01/27 07:00:45;;;;;;;45.20;23.95;;;;;;;3.71;78.81;100466.56;4954061;28;20082;-73
2022/01/27 07:03:10;;;;;;;41.67;22.67;;;;;;;3.72;78.68;100463.09;4971109;28;20039;-74
2022/01/27 07:05:36;;;;;;;42.72;21.73;;;;;;;3.70;78.85;100454.41;4953574;28;20038;-73
2022/01/27 07:08:01;;;;;;;41.17;21.92;;;;;;;3.70;79.14;100464.84;4974858;28;20104;-71
2022/01/27 07:10:27;;;;;;;37.75;23.30;;;;;;;3.69;78.70;100461.34;4971709;28;20035;-73
2022/01/27 07:12:52;;;;;;;52.88;24.70;;;;;;;3.70;78.77;100460.47;4971564;28;20069;-73
2022/01/27 07:15:18;;;;;;;38.35;24.02;;;;;;;3.68;78.80;100462.25;4971068;28;20030;-71
2022/01/27 07:17:44;;;;;;;42.60;24.58;;;;;;;3.68;79.00;100464.84;4971377;28;20114;-74
2022/01/27 07:20:10;;;;;;;49.63;26.55;;;;;;;3.69;79.11;100458.75;4975328;28;20473;-72
2022/01/27 07:22:36;;;;;;;47.03;22.27;;;;;;;3.74;79.15;100471.72;4971537;28;20035;-72
2022/01/27 07:25:04;;;;;;;41.85;22.95;;;;;;;3.74;78.82;100459.59;4971711;28;20113;-72
2022/01/27 07:27:31;;;;;;;44.85;24.23;;;;;;;3.73;78.93;100455.22;4965648;28;20045;-73
2022/01/27 07:29:57;;;;;;;40.05;23.27;;;;;;;3.77;79.38;100446.50;4964857;28;20086;-74
2022/01/27 07:32:22;;;;;;;40.22;23.10;;;;;;;3.81;79.27;100445.56;4957474;28;20051;-72
2022/01/27 07:34:47;;;;;;;38.10;21.45;;;;;;;3.85;78.75;100452.50;4956469;28;20042;-72
2022/01/27 07:37:13;;;;;;;41.25;22.10;;;;;;;3.86;78.75;100446.41;4970146;28;20496;-72
2022/01/27 07:39:38;;;;;;;44.47;23.30;;;;;;;3.90;78.63;100442.00;4970395;28;20039;-74
2022/01/27 07:42:03;;;;;;;41.30;21.63;;;;;;;3.93;78.62;100446.31;4970210;28;20474;-73
2022/01/27 07:44:29;;;;;;;37.35;22.08;;;;;;;3.94;78.89;100438.50;4970961;28;20118;-73
2022/01/27 07:46:55;;;;;;;54.65;24.80;;;;;;;3.99;78.88;100443.66;4970663;28;20026;-72
2022/01/27 07:49:21;;;;;;;45.08;23.17;;;;;;;4.03;78.70;100442.72;4970658;28;20050;-73
2022/01/27 07:51:46;;;;;;;44.20;22.77;;;;;;;4.05;78.63;100447.03;4970178;28;20023;-73
2022/01/27 07:54:12;;;;;;;40.40;23.02;;;;;;;4.09;78.88;100425.25;4969863;28;20031;-73
2022/01/27 07:56:37;;;;;;;41.45;24.30;;;;;;;4.16;78.39;100417.34;4970562;28;20031;-73
2022/01/27 07:59:03;;;;;;;41.10;23.55;;;;;;;4.20;78.50;100416.44;4952569;28;20093;-74
2022/01/27 08:01:28;;;;;;;46.25;21.90;;;;;;;4.22;78.50;100419.88;4971038;28;20169;-72
2022/01/27 08:03:54;;;;;;;50.20;24.83;;;;;;;4.20;78.34;100434.69;4975588;28;20057;-72
2022/01/27 08:06:19;;;;;;;41.80;21.13;;;;;;;4.21;78.43;100433.78;4977027;28;20042;-72
2022/01/27 08:08:45;;;;;;;48.50;24.20;;;;;;;4.19;78.42;100441.66;4979534;28;20038;-72
2022/01/27 08:11:10;;;;;;;36.47;22.33;;;;;;;4.22;78.59;100452.06;4974635;28;20511;-72
2022/01/27 08:13:40;;;;;;;49.92;23.35;;;;;;;4.25;78.33;100449.41;4978597;28;20051;-73
2022/01/27 08:16:06;;;;;;;45.10;22.17;;;;;;;4.29;78.44;100435.44;4975293;28;20041;-73
2022/01/27 08:18:31;;;;;;;38.67;22.80;;;;;;;4.34;78.17;100435.38;4980930;28;20165;-72
2022/01/27 08:20:57;;;;;;;38.72;21.92;;;;;;;4.40;78.40;100426.59;4977907;28;20503;-72
2022/01/27 08:23:22;;;;;;;41.85;22.17;;;;;;;4.41;78.10;100425.72;4977003;28;20046;-73
2022/01/27 08:25:52;;;;;;;41.15;22.77;;;;;;;4.41;78.23;100429.19;4967698;28;20086;-73
2022/01/27 08:28:25;;;;;;;37.67;20.17;;;;;;;4.47;77.98;100433.47;4968207;28;20385;-72
2022/01/27 08:30:53;;;;;;;42.35;23.42;;;;;;;4.51;77.82;100449.06;4969937;28;20093;-73
2022/01/27 08:33:19;;;;;;;41.95;22.73;;;;;;;4.53;78.08;100446.44;4953389;28;20031;-72
2022/01/27 08:35:45;;;;;;;47.65;25.38;;;;;;;4.53;78.04;100449.06;4969220;28;20054;-71
2022/01/27 08:38:10;;;;;;;43.38;22.67;;;;;;;4.56;78.08;100453.38;4953138;28;20050;-72
2022/01/27 08:40:36;;;;;;;42.10;22.33;;;;;;;4.58;77.87;100468.13;4970279;28;20083;-72
2022/01/27 08:43:03;;;;;;;43.60;23.35;;;;;;;4.56;79.03;100466.44;4969269;28;20046;-73
2022/01/27 08:45:29;;;;;;;45.83;25.05;;;;;;;4.49;79.43;100455.19;4966531;28;20045;-73
2022/01/27 08:47:57;;;;;;;41.85;23.98;;;;;;;4.50;80.08;100454.28;4968048;28;20039;-72
2022/01/27 08:50:24;;;;;;;42.10;21.40;;;;;;;4.49;79.99;100463.88;4966595;28;20066;-71
2022/01/27 08:52:49;;;;;;;39.47;23.40;;;;;;;4.46;81.29;100466.53;4965138;28;21200;-71
2022/01/27 08:55:16;;;;;;;44.65;24.38;;;;;;;4.42;81.06;100462.25;4956766;28;20050;-71
2022/01/27 08:57:42;;;;;;;45.92;24.10;;;;;;;4.40;81.66;100471.84;4965465;28;20039;-72
2022/01/27 09:00:11;;;;;;;45.17;23.45;;;;;;;4.39;82.12;100479.69;4965228;28;20050;-71
2022/01/27 09:02:37;;;;;;;43.47;25.55;;;;;;;4.37;82.42;100473.63;4964917;28;20038;-71
2022/01/27 09:05:03;;;;;;;48.20;23.05;;;;;;;4.29;82.55;100463.28;4964050;28;20038;-71
2022/01/27 09:07:29;;;;;;;44.97;23.60;;;;;;;4.23;83.37;100465.97;4968207;28;20454;-72
2022/01/27 09:09:54;;;;;;;44.45;23.65;;;;;;;4.17;83.94;100456.47;4970400;28;20097;-73
2022/01/27 09:12:19;;;;;;;44.20;24.60;;;;;;;4.10;84.27;100462.66;4964907;28;20058;-72
2022/01/27 09:14:45;;;;;;;53.53;26.88;;;;;;;4.09;84.38;100453.97;4963472;28;20050;-72
2022/01/27 09:17:12;;;;;;;38.03;22.08;;;;;;;4.09;84.75;100453.09;4964978;28;20411;-72
2022/01/27 09:19:40;;;;;;;49.20;22.92;;;;;;;4.05;85.05;100457.47;4968561;28;20058;-72
2022/01/27 09:22:13;;;;;;;44.85;25.38;;;;;;;4.06;85.33;100460.94;4969125;28;20515;-71
2022/01/27 09:24:49;;;;;;;48.10;24.80;;;;;;;4.04;85.42;100457.50;4968523;28;20415;-72
2022/01/27 09:27:14;;;;;;;44.35;22.15;;;;;;;4.03;86.18;100448.81;4968892;28;20049;-72
2022/01/27 09:29:39;;;;;;;43.33;23.15;;;;;;;4.06;85.61;100459.22;4967824;28;20475;-70
2022/01/27 09:32:06;;;;;;;38.95;21.25;;;;;;;4.08;85.41;100447.00;4958820;28;20043;-72
2022/01/27 09:34:31;;;;;;;46.90;22.52;;;;;;;4.09;85.17;100451.34;4963999;28;20045;-71
2022/01/27 09:37:01;;;;;;;39.33;21.38;;;;;;;4.08;85.71;100461.78;4963159;28;20042;-73
2022/01/27 09:39:27;;;;;;;37.80;20.80;;;;;;;4.06;86.27;100461.84;4967475;28;20518;-72
2022/01/27 09:41:55;;;;;;;40.45;23.13;;;;;;;4.09;86.26;100453.97;4967917;28;20053;-73
2022/01/27 09:44:24;;;;;;;36.20;22.88;;;;;;;4.09;86.32;100453.97;4978859;28;20508;-76
2022/01/27 09:46:50;;;;;;;44.65;21.42;;;;;;;4.15;86.09;100459.97;4981991;28;20081;-73
2022/01/27 09:49:18;;;;;;;43.08;21.83;;;;;;;4.19;86.34;100453.84;4951797;28;20063;-72
2022/01/27 09:51:46;;;;;;;33.00;18.63;;;;;;;4.19;86.21;100454.72;4948928;28;20043;-73
2022/01/27 09:54:14;;;;;;;47.28;23.80;;;;;;;4.23;86.74;100460.75;4951983;28;20042;-75
2022/01/27 09:56:42;;;;;;;35.30;22.90;;;;;;;4.24;86.88;100455.50;4975212;28;20043;-75
2022/01/27 09:59:09;;;;;;;37.63;21.08;;;;;;;4.26;86.60;100458.13;4968651;28;20413;-74
2022/01/27 10:01:35;;;;;;;35.40;20.70;;;;;;;4.28;86.94;100456.31;4967843;28;20050;-74
2022/01/27 10:04:07;;;;;;;34.42;19.92;;;;;;;4.35;86.73;100455.38;4967691;28;20062;-75
2022/01/27 10:06:35;;;;;;;38.13;22.10;;;;;;;4.38;86.63;100455.34;4969523;28;20045;-75
2022/01/27 10:09:19;;;;;;;38.65;19.75;;;;;;;4.43;86.71;100455.25;4969872;28;20066;-74
2022/01/27 10:11:49;;;;;;;32.72;18.35;;;;;;;4.45;86.78;100453.50;4968518;28;20056;-74
2022/01/27 10:14:47;;;;;;;29.33;17.60;;;;;;;4.48;86.51;100451.72;4968653;28;20046;-74
2022/01/27 10:17:13;;;;;;;31.70;18.83;;;;;;;4.50;86.44;100447.34;4954960;28;20038;-75
2022/01/27 10:19:39;;;;;;;29.10;17.63;;;;;;;4.51;86.43;100450.81;4967810;28;20058;-74
2022/01/27 10:22:13;;;;;;;29.75;18.63;;;;;;;4.55;86.67;100449.00;4950552;28;20488;-74
2022/01/27 10:24:39;;;;;;;31.30;18.52;;;;;;;4.53;86.93;100454.28;4968553;28;20030;-74
2022/01/27 10:32:48;;;;;;;27.98;17.40;;;;;;;4.64;87.07;100449.75;4971022;28;20038;-74
2022/01/27 10:35:15;;;;;;;31.15;19.83;;;;;;;4.69;87.38;100449.69;4969002;28;20060;-72
2022/01/27 10:38:02;;;;;;;33.00;19.10;;;;;;;4.73;86.71;100439.19;4971852;28;20443;-74
2022/01/27 10:40:31;;;;;;;;;;;;;;;4.72;86.95;100442.66;4971552;28;20063;-74
2022/01/27 10:43:19;;;;;;;30.77;16.42;;;;;;;4.74;87.40;100446.13;4971706;28;20387;-71
2022/01/27 10:46:09;;;;;;;32.28;18.55;;;;;;;4.78;87.21;100451.31;4970734;28;20093;-73
2022/01/27 10:48:40;;;;;;;32.28;19.42;;;;;;;4.79;87.43;100447.81;4971718;28;20039;-73
2022/01/27 10:51:15;;;;;;;30.25;17.58;;;;;;;4.83;87.16;100452.97;4973147;28;20061;-73
2022/01/27 10:53:50;;;;;;;32.17;20.13;;;;;;;4.87;87.06;100448.53;4972187;28;20145;-73
2022/01/27 10:56:18;;;;;;;;;;;;;;;4.90;87.62;100444.16;4971587;28;20429;-73
2022/01/27 10:58:44;;;;;;;35.55;17.02;;;;;;;4.92;86.84;100450.22;4971962;28;19998;-73
2022/01/27 11:01:10;;;;;;;29.75;16.40;;;;;;;4.98;86.91;100441.41;4972015;28;20071;-74
2022/01/27 11:03:36;;;;;;;31.27;17.52;;;;;;;5.01;86.92;100430.06;4974118;28;20035;-73
2022/01/27 11:06:10;;;;;;;31.67;16.27;;;;;;;5.06;86.98;100433.47;4969788;28;25311;-73
2022/01/27 11:08:37;;;;;;;24.48;15.88;;;;;;;5.07;87.10;100433.44;4971142;28;20118;-73
2022/01/27 11:11:04;;;;;;;22.13;14.00;;;;;;;5.03;87.19;100430.91;4971446;28;20141;-72
2022/01/27 11:13:30;;;;;;;28.02;16.92;;;;;;;5.00;86.71;100429.19;4971798;28;20043;-73
2022/01/27 11:15:56;;;;;;;21.70;13.55;;;;;;;4.99;87.12;100437.06;4970713;28;20518;-74
2022/01/27 11:18:24;;;;;;;25.70;15.48;;;;;;;5.01;87.12;100424.81;4971141;28;20077;-72
2022/01/27 11:20:58;;;;;;;21.17;13.88;;;;;;;5.07;86.87;100422.09;4971670;28;20455;-72
2022/01/27 11:26:08;;;;;;;23.00;13.93;;;;;;;5.15;87.04;100415.88;4970901;28;20446;-72
2022/01/27 11:28:34;;;;;;;24.25;14.43;;;;;;;5.18;86.98;100416.72;4971211;28;20030;-73
2022/01/27 11:31:39;;;;;;;24.10;12.88;;;;;;;5.20;86.71;100421.03;4971338;28;20125;-74
2022/01/27 11:34:08;;;;;;;18.15;11.50;;;;;;;5.23;87.26;100417.50;4970049;28;20388;-74
2022/01/27 11:36:36;;;;;;;20.88;11.45;;;;;;;5.27;86.75;100427.88;4971494;28;20086;-74
2022/01/27 11:39:03;;;;;;;21.58;10.80;;;;;;;5.28;86.96;100413.91;4970920;28;20126;-72
2022/01/27 11:41:50;;;;;;;14.60;9.25;;;;;;;5.38;87.13;100404.16;4970811;28;20042;-74
2022/01/27 11:44:22;;;;;;;15.77;9.52;;;;;;;5.40;86.91;100404.13;4953287;28;20035;-72
2022/01/27 11:47:10;;;;;;;13.05;8.85;;;;;;;5.44;87.30;100400.56;4970897;28;20043;-73
2022/01/27 11:52:52;;;;;;;11.77;8.43;;;;;;;5.43;87.97;100415.38;4970236;28;20512;-73
2022/01/27 11:55:23;;;;;;;13.63;9.32;;;;;;;5.44;88.02;100406.66;4970060;28;20200;-73
2022/01/27 11:57:50;;;;;;;11.07;7.97;;;;;;;5.45;88.32;100382.22;4970726;28;20694;-72
2022/01/27 12:00:18;;;;;;;13.18;8.45;;;;;;;5.48;87.72;100387.41;4975020;28;20034;-73
2022/01/27 12:02:56;;;;;;;13.15;8.40;;;;;;;5.52;88.47;100388.22;4971037;28;20706;-72
2022/01/27 12:05:22;;;;;;;11.77;7.97;;;;;;;5.59;88.34;100371.53;4985128;28;20069;-73
2022/01/27 12:08:09;;;;;;;13.00;7.88;;;;;;;5.66;87.69;100373.13;4970437;28;20078;-73
2022/01/27 12:10:44;;;;;;;11.43;7.65;;;;;;;5.69;88.37;100380.91;4970748;28;20114;-72
2022/01/27 12:19:11;;;;;;;8.80;6.22;;;;;;;5.78;87.94;100379.84;4964442;28;20042;-73
2022/01/27 12:21:59;;;;;;;8.93;6.57;;;;;;;5.73;88.64;100381.69;4967341;28;20039;-75
2022/01/27 12:24:30;;;;;;;10.57;6.63;;;;;;;5.74;88.18;100376.44;4974152;28;20046;-73